createdAt,value
2018-04-08T00:00:17.673Z,51.10
2018-04-08T00:02:46.693Z,45.50
2018-04-08T00:05:15.744Z,46.17
2018-04-08T00:07:44.999Z,48.95
2018-04-08T00:10:14.028Z,49.10
2018-04-08T00:12:43.367Z,47.55
2018-04-08T00:15:12.611Z,46.92
2018-04-08T00:17:41.701Z,43.40
2018-04-08T00:20:10.982Z,45.80
2018-04-08T00:22:39.969Z,45.67
2018-04-08T00:25:09.232Z,50.50
2018-04-08T00:27:38.552Z,46.83
2018-04-08T00:30:07.793Z,45.13
2018-04-08T00:32:37.063Z,46.97
2018-04-08T00:35:06.401Z,47.78
2018-04-08T00:37:35.852Z,45.70
2018-04-08T00:40:04.967Z,47.92
2018-04-08T00:42:35.295Z,47.92
2018-04-08T00:45:04.426Z,48.37
2018-04-08T00:47:33.459Z,47.83
2018-04-08T00:50:02.577Z,47.65
2018-04-08T00:52:31.584Z,50.73
2018-04-08T00:55:00.600Z,57.33
2018-04-08T00:57:31.415Z,69.28
2018-04-08T01:00:02.127Z,70.78
2018-04-08T01:02:32.910Z,69.95
2018-04-08T01:05:03.796Z,66.87
2018-04-08T01:07:34.868Z,63.55
2018-04-08T01:10:04.718Z,69.97
2018-04-08T01:12:36.323Z,66.02
2018-04-08T01:15:06.945Z,73.43
2018-04-08T01:17:37.952Z,62.58
2018-04-08T01:20:08.809Z,67.28
2018-04-08T01:22:39.867Z,63.15
2018-04-08T01:25:10.985Z,62.85
2018-04-08T01:27:41.850Z,61.85
2018-04-08T01:30:13.274Z,58.18
2018-04-08T01:32:43.929Z,54.40
2018-04-08T01:35:14.809Z,52.17
2018-04-08T01:37:45.843Z,48.30
2018-04-08T01:40:17.445Z,51.32
2018-04-08T01:42:48.327Z,52.14
2018-04-08T01:45:18.892Z,47.55
2018-04-08T01:47:50.663Z,47.84
2018-04-08T01:50:20.321Z,51.13
2018-04-08T01:52:51.884Z,48.32
2018-04-08T01:55:21.749Z,41.30
2018-04-08T01:57:52.474Z,41.52
2018-04-08T02:00:23.062Z,39.30
2018-04-08T02:02:54.602Z,43.18
2018-04-08T02:05:25.327Z,39.00
2018-04-08T02:07:55.735Z,43.48
2018-04-08T02:10:26.423Z,34.95
2018-04-08T02:12:57.299Z,35.10
2018-04-08T02:15:28.008Z,42.22
2018-04-08T02:17:59.959Z,44.58
2018-04-08T02:20:30.487Z,39.50
2018-04-08T02:22:59.852Z,39.47
2018-04-08T02:25:30.699Z,38.75
2018-04-08T02:28:01.511Z,36.35
2018-04-08T02:30:32.147Z,35.55
2018-04-08T02:33:03.166Z,33.97
2018-04-08T02:35:34.742Z,37.26
2018-04-08T02:38:05.453Z,34.78
2018-04-08T02:40:36.328Z,35.42
2018-04-08T02:43:07.768Z,31.68
2018-04-08T02:45:39.459Z,36.28
2018-04-08T02:48:10.329Z,32.17
2018-04-08T02:50:40.133Z,29.77
2018-04-08T02:53:10.879Z,34.53
2018-04-08T02:55:40.377Z,33.17
2018-04-08T02:58:11.035Z,30.98
2018-04-08T03:00:42.588Z,30.58
2018-04-08T03:03:13.454Z,31.02
2018-04-08T03:05:44.193Z,30.17
2018-04-08T03:08:15.962Z,27.18
2018-04-08T03:10:46.824Z,28.85
2018-04-08T03:13:16.806Z,27.10
2018-04-08T03:15:47.862Z,27.25
2018-04-08T03:18:18.743Z,26.60
2018-04-08T03:20:52.721Z,24.74
2018-04-08T03:23:22.053Z,23.95
2018-04-08T03:25:52.618Z,25.46
2018-04-08T03:28:23.280Z,28.16
2018-04-08T03:30:52.986Z,25.73
2018-04-08T03:33:24.087Z,28.33
2018-04-08T03:35:59.441Z,25.50
2018-04-08T03:38:28.757Z,27.85
2018-04-08T03:40:58.199Z,27.33
2018-04-08T03:43:27.761Z,27.43
2018-04-08T03:45:58.168Z,27.76
2018-04-08T03:48:29.284Z,26.17
2018-04-08T03:51:00.311Z,24.83
2018-04-08T03:53:30.905Z,27.35
2018-04-08T03:56:02.127Z,24.67
2018-04-08T03:58:33.140Z,26.83
2018-04-08T04:01:03.815Z,31.40
2018-04-08T04:03:34.864Z,31.42
2018-04-08T04:06:05.809Z,27.20
2018-04-08T04:08:36.968Z,29.52
2018-04-08T04:11:06.711Z,23.98
2018-04-08T04:13:38.403Z,40.58
2018-04-08T04:16:08.963Z,36.47
2018-04-08T04:18:50.319Z,32.00
2018-04-08T04:21:30.920Z,31.67
2018-04-08T04:24:10.800Z,30.90
2018-04-08T04:26:39.953Z,28.03
2018-04-08T04:29:08.735Z,26.63
2018-04-08T04:31:37.564Z,19.90
2018-04-08T04:34:06.752Z,22.00
2018-04-08T04:36:35.622Z,21.63
2018-04-08T04:39:04.275Z,21.50
2018-04-08T04:41:33.728Z,19.60
2018-04-08T04:44:03.047Z,20.45
2018-04-08T04:46:32.271Z,23.08
2018-04-08T04:49:01.575Z,23.83
2018-04-08T04:51:31.080Z,22.33
2018-04-08T04:54:00.319Z,22.15
2018-04-08T04:56:29.455Z,23.25
2018-04-08T04:58:58.938Z,23.55
2018-04-08T05:01:28.030Z,19.42
2018-04-08T05:03:57.167Z,21.70
2018-04-08T05:06:27.183Z,21.42
2018-04-08T05:08:58.031Z,19.77
2018-04-08T05:11:28.787Z,17.98
2018-04-08T05:14:00.325Z,19.06
2018-04-08T05:16:30.903Z,22.27
2018-04-08T05:19:01.790Z,18.77
2018-04-08T05:21:32.884Z,19.15
2018-04-08T05:24:03.796Z,21.12
2018-04-08T05:26:35.410Z,23.28
2018-04-08T05:29:06.177Z,27.70
2018-04-08T05:31:37.375Z,22.33
2018-04-08T05:34:08.145Z,23.00
2018-04-08T05:36:39.125Z,22.05
2018-04-08T05:39:10.784Z,21.64
2018-04-08T05:41:41.820Z,23.87
2018-04-08T05:44:12.386Z,23.24
2018-04-08T05:46:42.220Z,20.12
2018-04-08T05:49:13.033Z,20.45
2018-04-08T05:51:44.139Z,20.27
2018-04-08T05:54:15.592Z,24.62
2018-04-08T05:56:46.528Z,19.38
2018-04-08T05:59:16.033Z,16.17
2018-04-08T06:01:46.821Z,17.05
2018-04-08T06:04:17.804Z,18.00
2018-04-08T06:06:48.185Z,15.95
2018-04-08T06:09:18.920Z,16.37
2018-04-08T06:11:48.833Z,16.10
2018-04-08T06:14:20.404Z,13.92
2018-04-08T06:16:52.377Z,17.76
2018-04-08T06:19:23.823Z,15.14
2018-04-08T06:21:53.367Z,14.15
2018-04-08T06:24:24.411Z,14.35
2018-04-08T06:26:55.965Z,13.74
2018-04-08T06:29:26.667Z,12.90
2018-04-08T06:31:57.493Z,12.70
2018-04-08T06:34:27.953Z,13.86
2018-04-08T06:36:58.741Z,13.50
2018-04-08T06:39:29.595Z,13.30
2018-04-08T06:42:00.145Z,13.57
2018-04-08T06:44:31.165Z,14.73
2018-04-08T06:47:06.996Z,13.64
2018-04-08T06:49:35.816Z,13.57
2018-04-08T06:52:05.498Z,14.35
2018-04-08T06:54:35.024Z,14.60
2018-04-08T06:57:09.113Z,15.49
2018-04-08T06:59:38.481Z,12.95
2018-04-08T07:02:09.086Z,14.32
2018-04-08T07:04:40.547Z,13.54
2018-04-08T07:07:09.540Z,14.40
2018-04-08T07:09:41.029Z,13.93
2018-04-08T07:12:09.837Z,15.67
2018-04-08T07:14:40.356Z,14.72
2018-04-08T07:17:11.176Z,13.40
2018-04-08T07:19:42.000Z,11.65
2018-04-08T07:22:12.632Z,13.20
2018-04-08T07:24:43.320Z,15.14
2018-04-08T07:27:15.321Z,13.70
2018-04-08T07:29:44.191Z,12.83
2018-04-08T07:32:14.915Z,11.07
2018-04-08T07:34:46.688Z,14.00
2018-04-08T07:37:17.393Z,11.30
2018-04-08T07:39:48.180Z,11.10
2018-04-08T07:42:17.610Z,12.52
2018-04-08T07:44:47.034Z,10.03
2018-04-08T07:47:17.509Z,8.43
2018-04-08T07:49:48.462Z,10.45
2018-04-08T07:52:17.506Z,8.80
2018-04-08T07:54:46.647Z,9.63
2018-04-08T07:57:15.763Z,10.40
2018-04-08T07:59:44.819Z,14.03
2018-04-08T08:02:14.072Z,11.68
2018-04-08T08:04:43.027Z,11.27
2018-04-08T08:07:12.103Z,8.83
2018-04-08T08:09:41.388Z,10.15
2018-04-08T08:12:10.307Z,9.53
2018-04-08T08:14:39.538Z,12.97
2018-04-08T08:17:08.855Z,11.40
2018-04-08T08:19:37.869Z,9.90
2018-04-08T08:22:07.083Z,9.70
2018-04-08T08:24:36.127Z,11.63
2018-04-08T08:27:05.142Z,11.80
2018-04-08T08:29:34.258Z,11.67
2018-04-08T08:32:03.222Z,11.30
2018-04-08T08:34:32.344Z,12.27
2018-04-08T08:37:01.550Z,10.30
2018-04-08T08:39:30.621Z,13.00
2018-04-08T08:42:00.376Z,12.30
2018-04-08T08:44:29.910Z,11.00
2018-04-08T08:46:59.057Z,11.10
2018-04-08T08:49:28.080Z,24.00
2018-04-08T08:51:57.306Z,12.67
2018-04-08T08:54:26.491Z,11.27
2018-04-08T08:56:55.508Z,10.63
2018-04-08T08:59:24.600Z,13.17
2018-04-08T09:01:53.661Z,11.23
2018-04-08T09:04:22.596Z,12.77
2018-04-08T09:06:51.902Z,10.40
2018-04-08T09:09:21.043Z,8.90
2018-04-08T09:11:49.988Z,14.17
2018-04-08T09:14:19.184Z,11.87
2018-04-08T09:16:48.150Z,10.47
2018-04-08T09:19:19.596Z,8.57
2018-04-08T09:21:51.109Z,11.17
2018-04-08T09:24:20.511Z,13.30
2018-04-08T09:26:49.691Z,10.20
2018-04-08T09:29:18.726Z,11.30
2018-04-08T09:31:47.851Z,14.30
2018-04-08T09:34:16.845Z,12.20
2018-04-08T09:36:46.165Z,7.97
2018-04-08T09:39:15.567Z,14.13
2018-04-08T09:41:44.762Z,10.00
2018-04-08T09:44:13.968Z,9.50
2018-04-08T09:46:43.247Z,7.83
2018-04-08T09:49:12.201Z,11.33
2018-04-08T09:51:41.180Z,9.93
2018-04-08T09:54:20.060Z,7.60
2018-04-08T11:00:34.118Z,9.27
2018-04-08T11:03:03.171Z,12.70
2018-04-08T11:05:32.168Z,10.10
2018-04-08T11:08:01.264Z,6.90
2018-04-08T11:10:30.538Z,8.95
2018-04-08T11:12:59.504Z,11.97
2018-04-08T11:15:28.866Z,10.97
2018-04-08T11:17:58.106Z,9.13
2018-04-08T11:20:26.908Z,9.43
2018-04-08T11:22:55.984Z,10.50
2018-04-08T11:25:24.802Z,16.63
2018-04-08T11:27:54.022Z,9.57
2018-04-08T11:30:23.063Z,11.27
2018-04-08T11:32:52.671Z,8.90
2018-04-08T11:35:21.962Z,8.97
2018-04-08T11:37:51.063Z,8.60
2018-04-08T11:40:20.020Z,8.50
2018-04-08T11:42:48.993Z,11.00
2018-04-08T11:45:17.925Z,7.67
2018-04-08T11:47:46.902Z,9.70
2018-04-08T11:50:15.707Z,7.57
2018-04-08T11:52:44.801Z,9.03
2018-04-08T11:55:13.767Z,6.70
2018-04-08T11:57:42.814Z,8.73
2018-04-08T12:00:13.835Z,7.87
2018-04-08T12:02:42.738Z,8.20
2018-04-08T12:05:12.063Z,9.93
2018-04-08T12:07:41.410Z,6.17
2018-04-08T12:10:10.486Z,8.33
2018-04-08T12:12:39.692Z,11.13
2018-04-08T12:15:08.777Z,103.87
2018-04-08T12:17:37.743Z,577.97
2018-04-08T12:20:06.992Z,368.77
2018-04-08T12:22:35.853Z,232.10
2018-04-08T12:25:06.112Z,101.17
2018-04-08T12:27:34.911Z,21.27
2018-04-08T12:30:03.779Z,25.63
2018-04-08T12:32:32.659Z,28.23
2018-04-08T12:35:01.655Z,61.10
2018-04-08T12:37:30.632Z,33.87
2018-04-08T12:39:59.675Z,74.80
2018-04-08T12:42:28.676Z,51.53
2018-04-08T12:44:57.875Z,76.03
2018-04-08T12:47:26.857Z,218.73
2018-04-08T12:49:55.641Z,151.00
2018-04-08T12:52:24.680Z,57.43
2018-04-08T12:54:54.038Z,106.97
2018-04-08T12:57:23.228Z,41.57
2018-04-08T12:59:52.533Z,48.87
2018-04-08T13:02:21.588Z,14.53
2018-04-08T13:04:50.555Z,14.53
2018-04-08T13:07:19.957Z,17.47
2018-04-08T13:09:48.975Z,49.80
2018-04-08T13:12:17.772Z,58.27
2018-04-08T13:14:47.029Z,43.30
2018-04-08T13:17:16.183Z,72.03
2018-04-08T13:19:45.268Z,275.00
2018-04-08T13:22:14.607Z,625.05
2018-04-08T13:24:43.905Z,690.40
2018-04-08T13:27:12.908Z,322.57
2018-04-08T13:29:42.074Z,152.70
2018-04-08T13:32:11.047Z,201.02
2018-04-08T13:34:40.351Z,298.65
2018-04-08T13:37:09.415Z,382.98
2018-04-08T13:39:38.805Z,492.23
2018-04-08T13:42:08.038Z,233.43
2018-04-08T13:44:37.530Z,149.05
2018-04-08T13:47:06.592Z,40.73
2018-04-08T13:49:35.590Z,18.60
2018-04-08T13:52:04.664Z,27.10
2018-04-08T13:54:35.302Z,479.07
